Time;durP1;ratioP1;P1;durP2;ratioP2;P2;SDS_P1;SDS_P2;PMS_P1;PMS_P2;Temp;Humidity;BMP_temperature;BMP_pressure;BME280_temperature;BME280_humidity;BME280_pressure;Samples;Min_cycle;Max_cycle;Signal;HPM_P1;HPM_P2
2021/11/26 00:01:12;;;;;;;6.50;2.80;;;5.90;99.90;;;;;;6093582;23;20624;-77
2021/11/26 00:03:41;;;;;;;10.20;2.67;;;5.90;99.90;;;;;;6093458;23;20679;-78
2021/11/26 00:06:09;;;;;;;4.00;2.80;;;5.80;99.90;;;;;;6092667;23;20567;-78
2021/11/26 00:08:35;;;;;;;5.17;3.13;;;5.80;99.90;;;;;;6092118;23;20570;-78
2021/11/26 00:11:01;;;;;;;3.90;2.50;;;5.80;99.90;;;;;;6093129;23;20539;-77
2021/11/26 00:13:37;;;;;;;6.43;2.90;;;5.90;99.90;;;;;;6094310;23;20539;-77
2021/11/26 00:16:07;;;;;;;4.50;2.50;;;5.90;99.90;;;;;;6117008;23;20202;-77
2021/11/26 00:18:42;;;;;;;4.60;2.70;;;5.90;99.90;;;;;;6092142;23;20586;-76
2021/11/26 00:21:13;;;;;;;4.73;2.73;;;5.80;99.90;;;;;;6092449;23;20553;-77
2021/11/26 00:23:39;;;;;;;8.60;3.17;;;5.80;99.90;;;;;;6117062;23;20551;-77
2021/11/26 00:26:07;;;;;;;6.03;2.80;;;5.80;99.90;;;;;;6116825;23;20910;-77
2021/11/26 00:28:35;;;;;;;6.43;3.10;;;5.90;99.90;;;;;;6091402;23;20173;-77
2021/11/26 00:31:05;;;;;;;5.97;2.60;;;5.90;99.90;;;;;;6093178;23;20570;-77
2021/11/26 00:33:31;;;;;;;4.27;2.27;;;5.90;99.90;;;;;;6094213;23;20535;-78
2021/11/26 00:36:00;;;;;;;5.27;2.47;;;5.90;99.90;;;;;;6091585;23;20689;-77
2021/11/26 00:38:30;;;;;;;3.63;2.10;;;5.90;99.90;;;;;;6116135;23;20158;-77
2021/11/26 00:40:56;;;;;;;4.03;2.20;;;5.90;99.90;;;;;;6090963;23;20638;-77
2021/11/26 00:43:21;;;;;;;4.53;2.20;;;5.90;99.90;;;;;;6090297;23;21393;-77
2021/11/26 00:45:49;;;;;;;3.60;1.90;;;5.90;99.90;;;;;;6091697;23;20190;-77
2021/11/26 00:48:15;;;;;;;4.07;1.90;;;5.90;99.90;;;;;;6091753;23;20182;-77
2021/11/26 00:50:41;;;;;;;1.70;1.37;;;5.90;99.90;;;;;;6093137;23;20908;-77
2021/11/26 00:53:07;;;;;;;3.03;1.40;;;5.90;99.90;;;;;;6090489;23;20218;-77
2021/11/26 00:55:42;;;;;;;1.70;1.30;;;5.90;99.90;;;;;;6093094;23;20205;-77
2021/11/26 00:58:11;;;;;;;2.93;1.43;;;5.90;99.90;;;;;;6115287;23;20694;-77
2021/11/26 01:00:36;;;;;;;2.30;1.43;;;5.90;99.90;;;;;;6115618;23;20583;-78
2021/11/26 01:03:05;;;;;;;1.63;1.30;;;5.90;99.90;;;;;;6091897;23;20719;-78
2021/11/26 01:05:31;;;;;;;2.37;1.00;;;5.90;99.90;;;;;;6098465;23;20209;-78
2021/11/26 01:07:59;;;;;;;2.33;1.30;;;5.90;99.90;;;;;;6098436;23;20595;-77
2021/11/26 01:10:26;;;;;;;1.33;1.17;;;5.90;99.90;;;;;;6100160;23;21103;-76
2021/11/26 01:12:54;;;;;;;2.10;1.10;;;5.70;99.90;;;;;;6096576;23;20602;-77
2021/11/26 01:15:26;;;;;;;2.80;1.40;;;5.90;99.90;;;;;;6096008;23;20586;-77
2021/11/26 01:17:55;;;;;;;2.40;1.30;;;5.90;99.90;;;;;;6094929;23;21029;-77
2021/11/26 01:20:25;;;;;;;2.03;0.83;;;5.90;99.90;;;;;;6094939;23;20579;-77
2021/11/26 01:22:53;;;;;;;2.33;1.40;;;5.90;99.90;;;;;;6093552;23;20618;-76
2021/11/26 01:25:24;;;;;;;2.40;1.20;;;5.90;99.90;;;;;;6096856;23;20597;-78
2021/11/26 01:27:50;;;;;;;4.20;1.50;;;5.90;99.90;;;;;;6094510;23;20697;-78
2021/11/26 01:30:28;;;;;;;3.70;1.13;;;5.90;99.90;;;;;;6094539;23;20693;-78
2021/11/26 01:32:57;;;;;;;5.40;1.80;;;6.00;99.90;;;;;;6093588;23;20594;-78
2021/11/26 01:35:23;;;;;;;2.37;1.50;;;6.00;99.90;;;;;;6096402;23;20583;-78
2021/11/26 01:37:49;;;;;;;6.00;3.20;;;6.00;99.90;;;;;;6094438;23;20599;-77
2021/11/26 01:40:16;;;;;;;5.57;2.30;;;6.00;99.90;;;;;;6094482;23;20654;-77
2021/11/26 01:42:46;;;;;;;4.70;2.40;;;6.00;99.90;;;;;;6095404;23;21179;-77
2021/11/26 01:45:12;;;;;;;6.30;2.40;;;6.00;99.90;;;;;;6094520;23;20650;-78
2021/11/26 01:47:37;;;;;;;6.37;2.17;;;6.00;99.90;;;;;;6095892;23;20622;-78
2021/11/26 01:50:06;;;;;;;9.00;2.47;;;6.00;99.90;;;;;;6096424;23;20155;-78
2021/11/26 01:52:36;;;;;;;4.83;2.70;;;6.00;99.90;;;;;;6093226;23;20696;-77
2021/11/26 01:55:04;;;;;;;5.80;2.60;;;6.00;99.90;;;;;;6093463;23;20594;-78
2021/11/26 01:57:35;;;;;;;6.47;3.17;;;6.00;99.90;;;;;;6094336;23;20669;-77
2021/11/26 02:00:04;;;;;;;6.30;3.37;;;6.00;99.90;;;;;;6094078;23;20649;-78
2021/11/26 02:02:32;;;;;;;4.80;2.93;;;5.90;99.90;;;;;;6082062;23;20618;-78
2021/11/26 02:04:58;;;;;;;9.47;4.33;;;6.00;99.90;;;;;;6093806;23;20677;-78
2021/11/26 02:07:23;;;;;;;4.20;3.30;;;6.00;99.90;;;;;;6118592;23;20593;-78
2021/11/26 02:09:49;;;;;;;4.73;3.60;;;6.00;99.90;;;;;;6095802;23;20166;-78
2021/11/26 02:12:15;;;;;;;6.80;3.50;;;5.90;99.90;;;;;;6093495;23;20238;-78
2021/11/26 02:14:41;;;;;;;4.60;3.17;;;6.00;99.90;;;;;;6093712;23;20242;-78
2021/11/26 02:17:06;;;;;;;4.80;3.40;;;6.00;99.90;;;;;;6093106;23;20195;-78
2021/11/26 02:19:34;;;;;;;5.43;3.63;;;6.00;99.90;;;;;;6094452;23;21018;-78
2021/11/26 02:22:03;;;;;;;6.03;4.50;;;5.90;99.90;;;;;;6094178;23;20281;-77
2021/11/26 02:24:29;;;;;;;7.87;3.97;;;5.90;99.90;;;;;;6116907;23;20654;-78
2021/11/26 02:26:57;;;;;;;8.37;5.67;;;5.90;99.90;;;;;;6100209;23;20574;-78
2021/11/26 02:29:25;;;;;;;5.50;4.20;;;5.90;99.90;;;;;;6107496;23;20159;-78
2021/11/26 02:31:53;;;;;;;6.77;4.40;;;6.10;99.90;;;;;;6110244;23;20666;-80
2021/11/26 02:34:18;;;;;;;7.17;4.00;;;5.90;99.90;;;;;;6110262;23;20579;-78
2021/11/26 02:36:46;;;;;;;4.37;3.97;;;5.90;99.90;;;;;;6095518;23;20701;-77
2021/11/26 02:39:15;;;;;;;4.53;4.13;;;5.90;99.90;;;;;;6093970;23;20203;-78
2021/11/26 02:41:43;;;;;;;6.90;4.10;;;5.90;99.90;;;;;;6091773;23;20587;-78
2021/11/26 02:44:09;;;;;;;5.77;3.83;;;5.90;99.90;;;;;;6095058;23;20538;-78
2021/11/26 02:46:38;;;;;;;4.80;3.90;;;5.90;99.90;;;;;;6094782;23;20650;-78
2021/11/26 02:49:07;;;;;;;7.80;4.23;;;5.90;99.90;;;;;;6094549;23;20578;-78
2021/11/26 02:51:33;;;;;;;5.57;4.40;;;5.90;99.90;;;;;;6094300;23;20594;-77
2021/11/26 02:54:02;;;;;;;4.80;4.30;;;5.90;99.90;;;;;;6096029;23;20650;-78
2021/11/26 02:56:28;;;;;;;8.20;4.60;;;5.90;99.90;;;;;;6097529;23;21097;-79
2021/11/26 02:58:57;;;;;;;8.40;4.70;;;5.80;99.90;;;;;;6097640;23;20557;-78
2021/11/26 03:01:23;;;;;;;7.67;5.63;;;5.90;99.90;;;;;;6096309;23;20199;-78
2021/11/26 03:03:56;;;;;;;9.40;5.40;;;5.90;99.90;;;;;;6095381;23;20891;-78
2021/11/26 03:06:24;;;;;;;6.97;5.87;;;5.80;99.90;;;;;;6097634;23;20179;-78
2021/11/26 03:09:08;;;;;;;7.87;5.40;;;5.90;99.90;;;;;;6096634;23;20634;-78
2021/11/26 03:11:33;;;;;;;8.30;6.10;;;5.80;99.90;;;;;;6092832;23;20579;-78
2021/11/26 03:13:59;;;;;;;7.63;5.83;;;5.80;99.90;;;;;;6094313;23;20674;-77
2021/11/26 03:16:25;;;;;;;9.93;6.57;;;5.80;99.90;;;;;;6092830;23;20596;-78
2021/11/26 03:18:53;;;;;;;11.77;6.10;;;5.70;99.90;;;;;;6117206;23;20177;-78
2021/11/26 03:21:19;;;;;;;8.60;6.57;;;5.70;99.90;;;;;;6094838;23;20234;-78
2021/11/26 03:23:47;;;;;;;10.20;6.67;;;5.80;99.90;;;;;;6093704;23;20639;-78
2021/11/26 03:26:15;;;;;;;10.50;7.67;;;5.80;99.90;;;;;;6092848;23;20598;-78
2021/11/26 03:28:43;;;;;;;13.87;7.67;;;5.80;99.90;;;;;;6093379;23;20563;-78
2021/11/26 03:31:18;;;;;;;8.27;7.13;;;5.70;99.90;;;;;;6092845;23;20567;-78
2021/11/26 03:33:53;;;;;;;12.57;7.80;;;5.70;99.90;;;;;;6092747;23;20571;-78
2021/11/26 03:36:24;;;;;;;10.10;6.90;;;5.80;99.90;;;;;;6093131;23;20630;-78
2021/11/26 03:38:49;;;;;;;8.50;7.37;;;5.70;99.90;;;;;;6093127;23;21063;-78
2021/11/26 03:41:15;;;;;;;8.93;7.90;;;5.80;99.90;;;;;;6093608;23;20670;-78
2021/11/26 03:43:43;;;;;;;9.80;7.93;;;5.70;99.90;;;;;;6094702;23;20155;-78
2021/11/26 03:46:11;;;;;;;11.40;7.90;;;5.70;99.90;;;;;;6092803;23;20242;-78
2021/11/26 03:48:37;;;;;;;9.07;7.80;;;5.70;99.90;;;;;;6116683;23;20599;-78
2021/11/26 03:51:05;;;;;;;9.00;6.93;;;5.70;99.90;;;;;;6092533;23;20614;-78
2021/11/26 03:53:33;;;;;;;9.67;6.63;;;5.70;99.90;;;;;;6093989;23;20610;-78
2021/11/26 03:55:58;;;;;;;8.40;7.47;;;5.70;99.90;;;;;;6091455;23;20615;-78
2021/11/26 03:58:24;;;;;;;8.97;8.03;;;5.70;99.90;;;;;;6092267;23;20583;-78
2021/11/26 04:00:50;;;;;;;12.17;8.00;;;5.70;99.90;;;;;;6094363;23;20221;-78
2021/11/26 04:03:16;;;;;;;10.93;8.07;;;5.70;99.90;;;;;;6090914;23;20198;-79
2021/11/26 04:05:41;;;;;;;12.80;9.00;;;5.70;99.90;;;;;;6115369;23;20198;-78
2021/11/26 04:08:07;;;;;;;9.87;7.40;;;5.70;99.90;;;;;;6090899;23;20205;-76
2021/11/26 04:10:33;;;;;;;11.53;7.83;;;5.70;99.90;;;;;;6093065;23;20238;-77
2021/11/26 04:13:04;;;;;;;13.30;8.03;;;5.70;99.90;;;;;;6090140;23;20305;-77
2021/11/26 04:15:33;;;;;;;8.70;7.60;;;5.70;99.90;;;;;;6091360;23;20666;-76
2021/11/26 04:18:02;;;;;;;10.97;8.27;;;5.70;99.90;;;;;;6090584;23;20947;-77
2021/11/26 04:20:30;;;;;;;8.60;7.73;;;5.70;99.90;;;;;;6092039;23;20592;-77
2021/11/26 04:22:56;;;;;;;8.60;7.53;;;5.80;99.90;;;;;;6092033;23;20595;-77
2021/11/26 04:25:23;;;;;;;8.70;7.70;;;5.80;99.90;;;;;;6093813;23;21069;-77
2021/11/26 04:27:49;;;;;;;10.43;8.87;;;5.80;99.90;;;;;;6092146;23;21119;-77
2021/11/26 04:30:20;;;;;;;10.50;8.07;;;5.80;99.90;;;;;;6093201;23;20844;-78
2021/11/26 04:32:50;;;;;;;8.70;7.90;;;5.80;99.90;;;;;;6091340;23;20914;-78
2021/11/26 04:35:18;;;;;;;10.73;8.77;;;5.80;99.90;;;;;;6092070;23;20612;-78
2021/11/26 04:37:44;;;;;;;10.40;8.10;;;5.80;99.90;;;;;;6092375;23;20591;-78
2021/11/26 04:40:12;;;;;;;9.50;8.60;;;5.80;99.90;;;;;;6094688;23;21049;-78
2021/11/26 04:42:39;;;;;;;11.13;9.47;;;5.80;99.90;;;;;;6093966;23;20582;-78
2021/11/26 04:45:10;;;;;;;15.50;9.43;;;5.80;99.90;;;;;;6094928;23;21484;-78
2021/11/26 04:47:39;;;;;;;11.17;9.50;;;5.80;99.90;;;;;;6093611;23;20590;-78
2021/11/26 04:50:09;;;;;;;11.60;10.50;;;5.80;99.90;;;;;;6095227;23;20546;-77
2021/11/26 04:52:35;;;;;;;11.67;10.50;;;5.80;99.90;;;;;;6091584;23;20654;-77
2021/11/26 04:55:05;;;;;;;12.43;10.50;;;5.70;99.90;;;;;;6092896;23;20559;-77
2021/11/26 04:57:33;;;;;;;15.83;10.93;;;5.70;99.90;;;;;;6094833;23;20183;-77
2021/11/26 05:00:02;;;;;;;15.63;11.30;;;5.60;99.90;;;;;;6092441;23;20581;-77
2021/11/26 05:02:31;;;;;;;12.33;10.80;;;5.60;99.90;;;;;;6092469;23;20587;-77
2021/11/26 05:05:01;;;;;;;13.13;11.30;;;5.60;99.90;;;;;;6093841;23;20900;-77
2021/11/26 05:07:30;;;;;;;17.33;13.30;;;5.50;99.90;;;;;;6094128;23;20591;-77
2021/11/26 05:09:59;;;;;;;15.40;12.20;;;5.40;99.90;;;;;;6092986;23;20650;-78
2021/11/26 05:12:36;;;;;;;19.60;14.10;;;5.40;99.90;;;;;;6091941;23;21120;-77
2021/11/26 05:15:13;;;;;;;;;;;;;;;;;;;;;
2021/11/26 05:17:39;;;;;;;18.47;14.57;;;5.20;99.90;;;;;;6092684;23;20665;-77
2021/11/26 05:20:10;;;;;;;19.73;15.13;;;5.20;99.90;;;;;;6094197;23;20590;-77
2021/11/26 05:22:36;;;;;;;17.17;14.60;;;5.10;99.90;;;;;;6092487;23;20199;-77
2021/11/26 05:25:02;;;;;;;23.33;15.10;;;5.10;99.90;;;;;;6093556;23;20586;-77
2021/11/26 05:27:28;;;;;;;21.67;15.50;;;5.20;99.90;;;;;;6094432;23;20179;-77
2021/11/26 05:29:53;;;;;;;19.67;15.70;;;5.00;99.90;;;;;;6093439;23;20554;-77
2021/11/26 05:32:19;;;;;;;20.60;15.20;;;5.00;99.90;;;;;;6092322;23;20218;-77
2021/11/26 05:34:44;;;;;;;25.27;16.10;;;5.00;99.90;;;;;;6095746;23;20163;-77
2021/11/26 05:37:10;;;;;;;23.33;18.40;;;5.10;99.90;;;;;;6094170;23;20282;-77
2021/11/26 05:39:38;;;;;;;25.73;16.73;;;5.00;99.90;;;;;;6095523;23;20155;-77
2021/11/26 05:42:04;;;;;;;25.10;17.37;;;5.00;99.90;;;;;;6092310;23;20273;-76
2021/11/26 05:44:30;;;;;;;29.50;18.80;;;5.00;99.90;;;;;;6093713;23;20586;-77
2021/11/26 05:46:55;;;;;;;28.33;19.90;;;5.10;99.90;;;;;;6092390;23;20645;-77
2021/11/26 05:49:23;;;;;;;26.10;18.97;;;5.00;99.90;;;;;;6093071;23;20172;-78
2021/11/26 05:51:49;;;;;;;29.50;18.93;;;5.00;99.90;;;;;;6093129;23;20210;-77
2021/11/26 05:54:14;;;;;;;28.37;18.90;;;5.10;99.90;;;;;;6096093;23;20542;-77
2021/11/26 05:56:40;;;;;;;30.80;19.40;;;5.10;99.90;;;;;;6094359;23;20199;-77
2021/11/26 05:59:10;;;;;;;31.20;18.97;;;5.10;99.90;;;;;;6093420;23;20159;-77
2021/11/26 06:01:38;;;;;;;27.10;18.10;;;5.10;99.90;;;;;;6090426;23;20194;-76
2021/11/26 06:04:04;;;;;;;31.43;20.70;;;5.10;99.90;;;;;;6092003;23;20567;-76
2021/11/26 06:06:30;;;;;;;29.00;19.57;;;5.10;99.90;;;;;;6092413;23;20657;-76
2021/11/26 06:09:00;;;;;;;32.37;17.60;;;5.20;99.90;;;;;;6094590;23;20547;-77
2021/11/26 06:11:26;;;;;;;28.57;17.70;;;5.20;99.90;;;;;;6091768;23;20222;-76
2021/11/26 06:13:54;;;;;;;30.30;19.07;;;5.20;99.90;;;;;;6091811;23;20559;-76
2021/11/26 06:19:06;;;;;;;25.90;18.70;;;5.20;99.90;;;;;;6083913;23;20571;-76
2021/11/26 06:21:32;;;;;;;31.67;16.53;;;5.30;99.90;;;;;;6092881;23;21168;-76
2021/11/26 06:24:01;;;;;;;26.20;16.97;;;5.30;99.90;;;;;;6095571;23;20160;-77
2021/11/26 06:26:26;;;;;;;28.90;18.67;;;5.30;99.90;;;;;;6097252;23;20595;-78
2021/11/26 06:28:57;;;;;;;27.90;18.40;;;5.30;99.90;;;;;;6097573;23;20686;-80
2021/11/26 06:31:23;;;;;;;29.07;18.27;;;5.30;99.90;;;;;;6090512;23;20637;-79
2021/11/26 06:33:51;;;;;;;25.97;17.20;;;5.30;99.90;;;;;;6091532;23;20707;-77
2021/11/26 06:36:17;;;;;;;28.67;19.10;;;5.30;99.90;;;;;;6089245;23;21096;-77
2021/11/26 06:38:42;;;;;;;26.37;17.00;;;5.30;99.90;;;;;;6091318;23;20230;-77
2021/11/26 06:41:08;;;;;;;32.97;18.70;;;5.30;99.90;;;;;;6092275;23;20531;-78
2021/11/26 06:43:34;;;;;;;28.50;16.77;;;5.40;99.90;;;;;;6092928;23;20155;-77
2021/11/26 06:45:59;;;;;;;26.00;16.77;;;5.40;99.90;;;;;;6090080;23;20197;-77
2021/11/26 06:48:27;;;;;;;31.03;19.03;;;5.50;99.90;;;;;;6091589;23;20166;-77
2021/11/26 06:50:52;;;;;;;29.67;18.17;;;5.50;99.90;;;;;;6093456;23;20170;-76
2021/11/26 06:53:18;;;;;;;31.17;16.73;;;5.50;99.90;;;;;;6091402;23;20591;-76
2021/11/26 06:55:45;;;;;;;30.57;17.93;;;5.50;99.90;;;;;;6090278;23;20626;-76
2021/11/26 06:58:11;;;;;;;26.53;17.53;;;5.60;99.90;;;;;;6090722;23;20202;-76
2021/11/26 07:00:37;;;;;;;27.03;16.23;;;5.50;99.90;;;;;;6091926;23;20540;-76
2021/11/26 07:03:03;;;;;;;32.67;18.70;;;5.50;99.90;;;;;;6090545;23;21170;-76
2021/11/26 07:05:29;;;;;;;34.67;18.90;;;5.40;99.90;;;;;;6093107;23;20163;-76
2021/11/26 07:07:57;;;;;;;30.17;17.83;;;5.40;99.90;;;;;;6090524;23;20593;-77
2021/11/26 07:10:23;;;;;;;26.53;17.10;;;5.40;99.90;;;;;;6090078;23;20175;-76
2021/11/26 07:12:49;;;;;;;24.53;15.87;;;5.40;99.90;;;;;;6091385;23;21144;-76
2021/11/26 07:15:16;;;;;;;30.80;18.33;;;5.50;99.90;;;;;;6092146;23;20676;-76
2021/11/26 07:17:42;;;;;;;27.80;17.20;;;5.40;99.90;;;;;;6091260;23;20202;-76
2021/11/26 07:20:10;;;;;;;28.57;16.10;;;5.40;99.90;;;;;;6092707;23;20594;-76
2021/11/26 07:22:36;;;;;;;25.50;15.40;;;5.40;99.90;;;;;;6093717;23;20583;-76
2021/11/26 07:25:05;;;;;;;33.30;16.10;;;5.40;99.90;;;;;;6091425;23;21188;-80
2021/11/26 07:27:38;;;;;;;25.60;15.53;;;5.40;99.90;;;;;;6091951;23;20665;-76
2021/11/26 07:30:06;;;;;;;24.63;14.90;;;5.30;99.90;;;;;;6093210;23;20778;-77
2021/11/26 07:32:32;;;;;;;25.47;15.80;;;5.30;99.90;;;;;;6091043;23;20586;-77
2021/11/26 07:34:57;;;;;;;25.53;14.33;;;5.30;99.90;;;;;;6094494;23;20631;-77
2021/11/26 07:37:25;;;;;;;22.10;14.27;;;5.30;99.90;;;;;;6094628;23;20198;-77
2021/11/26 07:39:55;;;;;;;26.40;15.30;;;5.30;99.90;;;;;;6093110;23;20220;-78
2021/11/26 07:42:20;;;;;;;24.37;16.00;;;5.40;99.90;;;;;;6093785;23;20593;-77
2021/11/26 07:44:46;;;;;;;22.80;14.93;;;5.40;99.90;;;;;;6093893;23;20593;-79
2021/11/26 07:47:15;;;;;;;26.57;16.50;;;5.30;99.90;;;;;;6092415;23;20194;-77
2021/11/26 07:49:44;;;;;;;25.17;15.33;;;5.30;99.90;;;;;;6093787;23;20539;-78
2021/11/26 07:52:12;;;;;;;31.90;17.33;;;5.30;99.90;;;;;;6092883;23;20630;-77
2021/11/26 07:54:38;;;;;;;25.20;16.57;;;5.40;99.90;;;;;;6093983;23;20578;-78
2021/11/26 07:57:04;;;;;;;23.77;16.60;;;5.40;99.90;;;;;;6092798;23;20599;-75
2021/11/26 07:59:30;;;;;;;26.30;16.10;;;5.50;99.90;;;;;;6091604;23;20888;-76
2021/11/26 08:01:56;;;;;;;26.87;16.90;;;5.50;99.90;;;;;;6088926;23;21071;-75
2021/11/26 08:04:22;;;;;;;27.23;16.60;;;5.60;99.90;;;;;;6091036;23;20214;-76
2021/11/26 08:06:48;;;;;;;23.10;15.50;;;5.60;99.90;;;;;;6093182;23;20657;-78
2021/11/26 08:09:15;;;;;;;23.73;15.00;;;5.60;99.90;;;;;;6092007;23;20534;-77
2021/11/26 08:11:41;;;;;;;20.80;13.07;;;5.70;99.90;;;;;;6094379;23;20198;-77
2021/11/26 08:14:07;;;;;;;21.60;13.63;;;5.70;99.90;;;;;;6094810;23;20553;-77
2021/11/26 08:16:34;;;;;;;21.67;14.30;;;5.70;99.90;;;;;;6091135;23;20638;-76
2021/11/26 08:19:00;;;;;;;22.20;14.40;;;5.70;99.90;;;;;;6091801;23;20239;-76
2021/11/26 08:21:25;;;;;;;24.33;14.60;;;5.70;99.90;;;;;;6099371;23;20583;-78
2021/11/26 08:23:51;;;;;;;23.30;13.70;;;5.70;99.90;;;;;;6107596;23;20206;-76
2021/11/26 08:26:17;;;;;;;24.67;16.00;;;5.60;99.90;;;;;;6094844;23;20491;-76
2021/11/26 08:28:43;;;;;;;20.47;12.90;;;5.70;99.90;;;;;;6109408;23;20634;-76
2021/11/26 08:31:08;;;;;;;22.97;13.60;;;5.70;99.90;;;;;;6104741;23;20567;-78
2021/11/26 08:33:34;;;;;;;21.60;14.30;;;5.70;99.90;;;;;;6111327;23;20163;-76
2021/11/26 08:36:00;;;;;;;22.00;12.60;;;5.70;99.90;;;;;;6102493;23;20286;-77
2021/11/26 08:38:26;;;;;;;20.07;13.67;;;5.80;99.90;;;;;;6091939;23;20167;-76
2021/11/26 08:40:52;;;;;;;19.00;12.77;;;5.80;99.90;;;;;;6091921;23;21117;-77
2021/11/26 08:43:18;;;;;;;21.77;13.50;;;5.80;99.90;;;;;;6091758;23;20207;-79
2021/11/26 08:45:44;;;;;;;22.30;13.33;;;5.80;99.90;;;;;;6091875;23;20194;-77
2021/11/26 08:48:13;;;;;;;18.23;13.37;;;5.80;99.90;;;;;;6093002;23;20629;-77
2021/11/26 08:50:39;;;;;;;20.80;13.60;;;5.80;99.90;;;;;;6093792;23;20611;-80
2021/11/26 08:53:06;;;;;;;19.17;13.33;;;5.80;99.90;;;;;;6095497;23;20689;-76
2021/11/26 08:55:35;;;;;;;17.93;11.87;;;5.80;99.90;;;;;;6096029;23;20579;-79
2021/11/26 08:58:02;;;;;;;21.53;14.43;;;5.90;99.90;;;;;;6093732;23;20591;-76
2021/11/26 09:00:33;;;;;;;18.37;12.20;;;5.90;99.90;;;;;;6092936;23;20982;-76
2021/11/26 09:03:01;;;;;;;21.60;13.90;;;6.00;99.90;;;;;;6091949;23;20650;-76
2021/11/26 09:05:27;;;;;;;23.33;13.67;;;6.00;99.90;;;;;;6090952;23;20567;-77
2021/11/26 09:07:59;;;;;;;20.60;12.27;;;5.90;99.90;;;;;;6090045;23;20681;-77
2021/11/26 09:10:26;;;;;;;22.10;12.27;;;5.80;99.90;;;;;;6092410;23;20891;-77
2021/11/26 09:12:52;;;;;;;19.73;11.97;;;5.80;99.90;;;;;;6091001;23;20605;-76
2021/11/26 09:15:22;;;;;;;19.73;10.50;;;5.80;99.90;;;;;;6093601;23;20526;-76
2021/11/26 09:17:48;;;;;;;16.17;11.37;;;5.90;99.90;;;;;;6093828;23;20174;-77
2021/11/26 09:20:14;;;;;;;17.10;11.23;;;5.90;99.90;;;;;;6092052;23;21109;-77
2021/11/26 09:22:40;;;;;;;15.40;10.90;;;5.90;99.90;;;;;;6089741;23;20618;-76
2021/11/26 09:25:07;;;;;;;17.00;10.53;;;5.80;99.90;;;;;;6094970;23;20151;-76
2021/11/26 09:27:33;;;;;;;14.53;10.63;;;5.80;99.90;;;;;;6095243;23;20265;-76
2021/11/26 09:29:59;;;;;;;15.80;10.53;;;5.90;99.90;;;;;;6096886;23;20542;-77
2021/11/26 09:32:25;;;;;;;17.00;10.90;;;5.70;99.90;;;;;;6092323;23;20590;-77
2021/11/26 09:34:51;;;;;;;16.97;11.97;;;5.80;99.90;;;;;;6095225;23;20159;-77
2021/11/26 09:37:17;;;;;;;17.07;11.17;;;6.00;99.90;;;;;;6094205;23;20610;-77
2021/11/26 09:39:44;;;;;;;16.10;10.30;;;5.80;99.90;;;;;;6095172;23;20250;-76
2021/11/26 09:42:12;;;;;;;15.00;11.10;;;6.00;99.90;;;;;;6092107;23;20917;-77
2021/11/26 09:44:40;;;;;;;15.53;9.60;;;5.90;99.90;;;;;;6093581;23;20626;-77
2021/11/26 09:47:06;;;;;;;14.17;10.47;;;5.90;99.90;;;;;;6093552;23;20599;-76
2021/11/26 09:49:33;;;;;;;17.57;11.70;;;5.90;99.90;;;;;;6070640;23;20579;-76
2021/11/26 09:51:59;;;;;;;17.53;11.20;;;6.10;99.90;;;;;;6094395;23;20598;-76
2021/11/26 09:54:25;;;;;;;17.77;12.00;;;6.00;99.90;;;;;;6093279;23;20601;-77
2021/11/26 09:56:51;;;;;;;19.00;14.37;;;6.00;99.90;;;;;;6092320;23;20691;-77
2021/11/26 09:59:18;;;;;;;18.90;11.87;;;6.00;99.90;;;;;;6092903;23;21013;-76
2021/11/26 10:01:44;;;;;;;17.30;11.50;;;6.10;99.90;;;;;;6091504;23;20671;-77
2021/11/26 10:04:19;;;;;;;17.70;12.17;;;6.10;99.90;;;;;;6092293;23;20638;-76
2021/11/26 10:06:45;;;;;;;17.83;12.00;;;6.20;99.90;;;;;;6093177;23;20598;-77
2021/11/26 10:09:22;;;;;;;18.10;11.50;;;6.20;99.90;;;;;;6095295;23;20925;-76
2021/11/26 10:12:02;;;;;;;17.20;10.90;;;6.30;99.90;;;;;;6089553;23;20594;-77
2021/11/26 10:14:31;;;;;;;14.47;10.07;;;6.20;99.90;;;;;;6089711;23;20566;-77
2021/11/26 10:17:15;;;;;;;16.03;11.20;;;6.20;99.90;;;;;;6088977;23;20622;-78
2021/11/26 10:19:51;;;;;;;13.57;9.17;;;6.30;99.90;;;;;;6094078;23;20566;-76
2021/11/26 10:22:36;;;;;;;11.93;9.13;;;6.20;99.90;;;;;;6092297;23;20996;-77
2021/11/26 10:25:15;;;;;;;13.70;7.90;;;6.20;99.90;;;;;;6092071;23;20654;-76
2021/11/26 10:27:42;;;;;;;13.57;8.83;;;6.20;99.90;;;;;;6093649;23;20559;-77
2021/11/26 10:30:28;;;;;;;13.37;8.87;;;6.30;99.90;;;;;;6093433;23;20899;-76
2021/11/26 10:33:01;;;;;;;12.37;8.50;;;6.20;99.90;;;;;;6115221;23;20586;-77
2021/11/26 10:35:28;;;;;;;14.83;8.70;;;6.20;99.90;;;;;;6092617;23;20903;-76
2021/11/26 10:38:21;;;;;;;12.03;8.50;;;6.20;99.90;;;;;;6105071;23;20598;-79
2021/11/26 10:40:52;;;;;;;9.30;7.20;;;6.20;99.90;;;;;;6101497;23;20503;-77
2021/11/26 10:43:36;;;;;;;11.20;7.63;;;6.30;99.90;;;;;;6097353;23;20597;-77
2021/11/26 10:56:59;;;;;;;11.40;7.53;;;6.20;99.90;;;;;;6093764;23;20601;-77
2021/11/26 10:59:29;;;;;;;12.07;8.37;;;6.10;99.90;;;;;;6118044;23;20567;-76
2021/11/26 11:01:56;;;;;;;17.03;9.40;;;6.10;99.90;;;;;;6092691;23;20583;-76
2021/11/26 11:04:25;;;;;;;10.83;7.83;;;6.10;99.90;;;;;;6116790;23;21155;-77
2021/11/26 11:06:57;;;;;;;12.37;7.77;;;6.20;99.90;;;;;;6094071;23;20589;-77
2021/11/26 11:09:22;;;;;;;12.70;8.70;;;6.20;99.90;;;;;;6118714;23;20578;-77
2021/11/26 11:11:51;;;;;;;13.70;8.33;;;6.20;99.90;;;;;;6094798;23;20615;-77
2021/11/26 11:14:24;;;;;;;16.80;8.57;;;6.30;99.90;;;;;;6118293;23;20593;-76
2021/11/26 11:16:52;;;;;;;15.77;9.27;;;6.30;99.90;;;;;;6093856;23;20945;-76
2021/11/26 11:19:18;;;;;;;12.10;8.50;;;6.40;99.90;;;;;;6096151;23;20566;-76
2021/11/26 11:21:48;;;;;;;13.10;8.57;;;6.40;99.90;;;;;;6093572;23;20614;-77
2021/11/26 11:24:16;;;;;;;12.90;8.30;;;6.40;99.90;;;;;;6096170;23;20488;-76
2021/11/26 11:26:46;;;;;;;11.57;8.60;;;6.40;99.90;;;;;;6095867;23;20571;-76
2021/11/26 11:29:17;;;;;;;16.03;9.60;;;6.50;99.90;;;;;;6095222;23;20595;-77
2021/11/26 11:31:44;;;;;;;13.03;8.17;;;6.50;99.90;;;;;;6095030;23;20622;-76
2021/11/26 11:34:12;;;;;;;12.23;9.00;;;6.60;99.90;;;;;;6096201;23;20606;-77
2021/11/26 11:36:42;;;;;;;12.90;8.83;;;6.60;99.90;;;;;;6095017;23;20614;-76
2021/11/26 11:39:09;;;;;;;15.47;9.50;;;6.60;99.90;;;;;;6094850;23;20535;-77
2021/11/26 11:41:55;;;;;;;14.30;8.50;;;6.60;99.90;;;;;;6093527;23;20618;-76
2021/11/26 11:44:35;;;;;;;13.93;9.87;;;6.50;99.90;;;;;;6093657;23;20929;-76
2021/11/26 11:47:16;;;;;;;13.57;9.40;;;6.50;99.90;;;;;;6094439;23;20645;-77
2021/11/26 11:49:42;;;;;;;12.20;8.27;;;6.50;99.90;;;;;;6096093;23;20496;-77
2021/11/26 11:52:11;;;;;;;14.77;10.10;;;6.50;99.90;;;;;;6094821;23;20594;-76
2021/11/26 11:54:42;;;;;;;14.40;8.60;;;6.60;99.90;;;;;;6094059;23;20163;-77
2021/11/26 11:57:23;;;;;;;18.00;9.87;;;6.60;99.90;;;;;;6094863;23;20611;-77
2021/11/26 11:59:51;;;;;;;15.57;9.87;;;6.60;99.90;;;;;;6094089;23;20798;-73
2021/11/26 12:02:26;;;;;;;17.00;9.50;;;6.60;99.90;;;;;;6094147;23;20594;-77
2021/11/26 12:04:56;;;;;;;11.67;8.93;;;6.70;99.90;;;;;;6095580;23;20562;-77
2021/11/26 12:07:28;;;;;;;14.00;9.07;;;6.70;99.90;;;;;;6096793;23;20574;-77
2021/11/26 12:10:20;;;;;;;17.53;10.30;;;6.70;99.90;;;;;;6122044;23;20948;-77
2021/11/26 12:12:51;;;;;;;15.30;11.00;;;6.60;99.90;;;;;;6089811;23;20594;-77
2021/11/26 12:15:31;;;;;;;14.47;9.57;;;6.60;99.90;;;;;;6095604;23;20586;-77
2021/11/26 12:18:07;;;;;;;18.13;9.90;;;6.60;99.90;;;;;;6098875;23;20667;-79
2021/11/26 12:20:35;;;;;;;15.97;10.07;;;6.60;99.90;;;;;;6096693;23;20602;-79
2021/11/26 12:23:25;;;;;;;18.77;10.70;;;6.70;99.90;;;;;;6089447;23;20591;-78
2021/11/26 12:26:17;;;;;;;18.10;10.47;;;6.70;99.90;;;;;;6091088;23;21036;-78
2021/11/26 12:28:49;;;;;;;16.30;10.53;;;6.70;99.90;;;;;;6091607;23;20518;-77
2021/11/26 12:31:19;;;;;;;16.07;10.67;;;6.70;99.90;;;;;;6093401;23;20559;-76
2021/11/26 12:33:44;;;;;;;19.37;11.67;;;6.70;99.90;;;;;;6095748;23;20563;-77
2021/11/26 12:36:16;;;;;;;16.50;11.50;;;6.70;99.90;;;;;;6094573;23;20658;-77
2021/11/26 12:38:53;;;;;;;17.60;11.60;;;6.60;99.90;;;;;;6097041;23;20143;-77
2021/11/26 12:41:34;;;;;;;18.80;11.43;;;6.70;99.90;;;;;;6094568;23;20565;-77
2021/11/26 12:44:02;;;;;;;16.50;10.53;;;6.70;99.90;;;;;;6095145;23;21096;-77
2021/11/26 12:46:37;;;;;;;17.83;11.50;;;6.70;99.90;;;;;;6096972;23;20567;-77
2021/11/26 12:51:39;;;;;;;14.83;10.07;;;6.70;99.90;;;;;;6103591;23;20589;-77
2021/11/26 12:54:05;;;;;;;15.43;10.80;;;6.80;99.90;;;;;;6095222;23;20594;-77
2021/11/26 12:56:33;;;;;;;15.90;10.80;;;6.80;99.90;;;;;;6095537;23;20625;-77
2021/11/26 12:58:59;;;;;;;15.90;10.90;;;6.80;99.90;;;;;;6098189;23;21073;-77
2021/11/26 13:01:24;;;;;;;16.10;9.80;;;6.90;99.90;;;;;;6096680;23;20593;-77
2021/11/26 13:03:50;;;;;;;16.13;11.67;;;6.90;99.90;;;;;;6097385;23;20155;-76
2021/11/26 13:06:25;;;;;;;19.53;11.00;;;7.10;99.90;;;;;;6097131;23;20234;-77
2021/11/26 13:08:59;;;;;;;17.60;9.67;;;7.00;99.90;;;;;;6096573;23;20492;-76